sensor_id;sensor_type;location;lat;lon;timestamp;pressure;altitude;pressure_sealevel;temperature;humidity
46722;BME280;32455;43.430;23.136;2022-07-10T00:00:15;97952.75;;;18.56;80.45
46722;BME280;32455;43.430;23.136;2022-07-10T00:03:03;97943.78;;;18.45;81.49
46722;BME280;32455;43.430;23.136;2022-07-10T00:05:49;97945.47;;;18.36;83.00
46722;BME280;32455;43.430;23.136;2022-07-10T00:08:35;97948.16;;;18.41;84.02
46722;BME280;32455;43.430;23.136;2022-07-10T00:11:21;97945.56;;;18.16;84.65
46722;BME280;32455;43.430;23.136;2022-07-10T00:14:07;97943.41;;;18.08;84.64
46722;BME280;32455;43.430;23.136;2022-07-10T00:16:53;97938.56;;;17.99;85.40
46722;BME280;32455;43.430;23.136;2022-07-10T00:19:38;97938.56;;;17.94;86.33
46722;BME280;32455;43.430;23.136;2022-07-10T00:22:23;97938.81;;;17.98;85.34
46722;BME280;32455;43.430;23.136;2022-07-10T00:25:10;97933.13;;;17.89;86.03
46722;BME280;32455;43.430;23.136;2022-07-10T00:27:55;97933.97;;;17.80;86.94
46722;BME280;32455;43.430;23.136;2022-07-10T00:30:41;97928.25;;;17.71;87.21
46722;BME280;32455;43.430;23.136;2022-07-10T00:33:27;97941.84;;;17.56;87.65
46722;BME280;32455;43.430;23.136;2022-07-10T00:36:14;97932.88;;;17.55;87.51
46722;BME280;32455;43.430;23.136;2022-07-10T00:38:59;97917.16;;;17.52;85.85
46722;BME280;32455;43.430;23.136;2022-07-10T00:41:44;97929.34;;;17.75;85.91
46722;BME280;32455;43.430;23.136;2022-07-10T00:44:29;97927.44;;;17.75;84.77
46722;BME280;32455;43.430;23.136;2022-07-10T00:47:15;97927.41;;;17.86;84.32
46722;BME280;32455;43.430;23.136;2022-07-10T00:50:05;97910.88;;;17.62;82.57
46722;BME280;32455;43.430;23.136;2022-07-10T00:52:52;97923.09;;;17.69;82.87
46722;BME280;32455;43.430;23.136;2022-07-10T00:55:38;97938.88;;;17.77;83.96
46722;BME280;32455;43.430;23.136;2022-07-10T00:58:23;97926.91;;;17.58;84.15
46722;BME280;32455;43.430;23.136;2022-07-10T01:01:09;97932.88;;;17.65;85.18
46722;BME280;32455;43.430;23.136;2022-07-10T01:03:55;97926.66;;;17.65;85.90
46722;BME280;32455;43.430;23.136;2022-07-10T01:06:40;97915.22;;;17.63;84.73
46722;BME280;32455;43.430;23.136;2022-07-10T01:09:26;97930.47;;;17.74;83.93
46722;BME280;32455;43.430;23.136;2022-07-10T01:12:14;97927.97;;;17.72;79.92
46722;BME280;32455;43.430;23.136;2022-07-10T01:15:00;97920.63;;;17.68;82.40
46722;BME280;32455;43.430;23.136;2022-07-10T01:17:46;97902.69;;;17.72;81.24
46722;BME280;32455;43.430;23.136;2022-07-10T01:20:33;97904.63;;;17.66;82.24
46722;BME280;32455;43.430;23.136;2022-07-10T01:23:19;97927.44;;;17.70;82.18
46722;BME280;32455;43.430;23.136;2022-07-10T01:26:07;97923.94;;;17.65;81.86
46722;BME280;32455;43.430;23.136;2022-07-10T01:28:54;97924.47;;;17.62;82.76
46722;BME280;32455;43.430;23.136;2022-07-10T01:31:41;97920.41;;;17.49;84.40
46722;BME280;32455;43.430;23.136;2022-07-10T01:34:26;97923.13;;;17.49;83.94
46722;BME280;32455;43.430;23.136;2022-07-10T01:37:13;97910.91;;;17.41;85.06
46722;BME280;32455;43.430;23.136;2022-07-10T01:39:58;97912.00;;;17.25;84.64
46722;BME280;32455;43.430;23.136;2022-07-10T01:42:43;97912.53;;;17.52;82.15
46722;BME280;32455;43.430;23.136;2022-07-10T01:45:30;97905.19;;;17.43;82.99
46722;BME280;32455;43.430;23.136;2022-07-10T01:48:15;97911.97;;;17.45;82.63
46722;BME280;32455;43.430;23.136;2022-07-10T01:51:00;97922.31;;;17.53;83.22
46722;BME280;32455;43.430;23.136;2022-07-10T01:53:46;97923.13;;;17.44;82.91
46722;BME280;32455;43.430;23.136;2022-07-10T01:56:32;97914.41;;;17.57;82.78
46722;BME280;32455;43.430;23.136;2022-07-10T01:59:18;97901.66;;;17.42;82.88
46722;BME280;32455;43.430;23.136;2022-07-10T02:02:03;97915.78;;;17.55;83.18
46722;BME280;32455;43.430;23.136;2022-07-10T02:04:48;97905.47;;;17.46;83.26
46722;BME280;32455;43.430;23.136;2022-07-10T02:07:33;97914.13;;;17.64;82.44
46722;BME280;32455;43.430;23.136;2022-07-10T02:10:18;97907.63;;;17.75;81.32
46722;BME280;32455;43.430;23.136;2022-07-10T02:13:04;97899.97;;;17.72;80.00
46722;BME280;32455;43.430;23.136;2022-07-10T02:15:50;97904.31;;;17.88;77.49
46722;BME280;32455;43.430;23.136;2022-07-10T02:18:36;97907.53;;;18.00;78.41
46722;BME280;32455;43.430;23.136;2022-07-10T02:21:22;97899.91;;;18.02;76.59
46722;BME280;32455;43.430;23.136;2022-07-10T02:24:08;97899.34;;;18.16;74.20
46722;BME280;32455;43.430;23.136;2022-07-10T02:26:53;97889.50;;;18.25;73.81
46722;BME280;32455;43.430;23.136;2022-07-10T02:29:40;97894.41;;;18.23;75.62
46722;BME280;32455;43.430;23.136;2022-07-10T02:32:26;97900.34;;;18.30;74.66
46722;BME280;32455;43.430;23.136;2022-07-10T02:35:12;97899.28;;;18.26;76.66
46722;BME280;32455;43.430;23.136;2022-07-10T02:37:57;97900.69;;;18.13;77.06
46722;BME280;32455;43.430;23.136;2022-07-10T02:40:43;97909.38;;;18.20;73.43
46722;BME280;32455;43.430;23.136;2022-07-10T02:43:28;97899.03;;;18.22;75.42
46722;BME280;32455;43.430;23.136;2022-07-10T02:46:14;97899.09;;;18.12;75.28
46722;BME280;32455;43.430;23.136;2022-07-10T02:49:01;97886.56;;;18.11;76.23
46722;BME280;32455;43.430;23.136;2022-07-10T02:51:47;97895.78;;;18.15;76.96
46722;BME280;32455;43.430;23.136;2022-07-10T02:54:32;97898.50;;;18.15;75.66
46722;BME280;32455;43.430;23.136;2022-07-10T02:57:18;97898.84;;;18.04;76.21
46722;BME280;32455;43.430;23.136;2022-07-10T03:00:04;97894.47;;;18.08;74.55
46722;BME280;32455;43.430;23.136;2022-07-10T03:02:50;97899.56;;;18.30;73.32
46722;BME280;32455;43.430;23.136;2022-07-10T03:05:35;97899.22;;;18.36;72.28
46722;BME280;32455;43.430;23.136;2022-07-10T03:08:20;97890.28;;;18.31;73.22
46722;BME280;32455;43.430;23.136;2022-07-10T03:11:06;97895.16;;;18.39;72.20
46722;BME280;32455;43.430;23.136;2022-07-10T03:13:51;97895.19;;;18.34;71.92
46722;BME280;32455;43.430;23.136;2022-07-10T03:16:36;97896.81;;;18.35;72.48
46722;BME280;32455;43.430;23.136;2022-07-10T03:19:22;97906.06;;;18.34;74.08
46722;BME280;32455;43.430;23.136;2022-07-10T03:22:08;97905.25;;;18.33;72.02
46722;BME280;32455;43.430;23.136;2022-07-10T03:24:54;97897.34;;;18.32;72.04
46722;BME280;32455;43.430;23.136;2022-07-10T03:27:40;97890.81;;;18.38;72.43
46722;BME280;32455;43.430;23.136;2022-07-10T03:30:25;97901.69;;;18.38;72.47
46722;BME280;32455;43.430;23.136;2022-07-10T03:33:10;97903.50;;;18.52;71.53
46722;BME280;32455;43.430;23.136;2022-07-10T03:35:56;97896.16;;;18.53;70.57
46722;BME280;32455;43.430;23.136;2022-07-10T03:38:41;97896.66;;;18.60;69.14
46722;BME280;32455;43.430;23.136;2022-07-10T03:41:28;97901.78;;;18.67;68.74
46722;BME280;32455;43.430;23.136;2022-07-10T03:44:14;97905.59;;;18.66;69.61
46722;BME280;32455;43.430;23.136;2022-07-10T03:46:58;97899.69;;;18.59;69.49
46722;BME280;32455;43.430;23.136;2022-07-10T03:49:44;97902.88;;;18.71;68.52
46722;BME280;32455;43.430;23.136;2022-07-10T03:52:30;97882.25;;;18.60;70.96
46722;BME280;32455;43.430;23.136;2022-07-10T03:55:16;97890.41;;;18.60;71.62
46722;BME280;32455;43.430;23.136;2022-07-10T03:58:02;97887.34;;;18.66;71.12
46722;BME280;32455;43.430;23.136;2022-07-10T04:00:48;97895.19;;;18.83;68.30
46722;BME280;32455;43.430;23.136;2022-07-10T04:03:34;97892.91;;;18.95;68.21
46722;BME280;32455;43.430;23.136;2022-07-10T04:06:20;97885.00;;;18.99;66.79
46722;BME280;32455;43.430;23.136;2022-07-10T04:09:05;97887.38;;;19.06;67.76
46722;BME280;32455;43.430;23.136;2022-07-10T04:11:51;97894.09;;;19.18;65.72
46722;BME280;32455;43.430;23.136;2022-07-10T04:14:36;97909.31;;;19.24;67.42
46722;BME280;32455;43.430;23.136;2022-07-10T04:17:22;97903.81;;;19.30;64.48
46722;BME280;32455;43.430;23.136;2022-07-10T04:20:07;97892.34;;;19.33;64.12
46722;BME280;32455;43.430;23.136;2022-07-10T04:22:53;97897.75;;;19.38;63.16
46722;BME280;32455;43.430;23.136;2022-07-10T04:25:39;97901.78;;;19.45;62.09
46722;BME280;32455;43.430;23.136;2022-07-10T04:28:25;97893.34;;;19.42;62.72
46722;BME280;32455;43.430;23.136;2022-07-10T04:31:10;97878.19;;;19.31;66.68
46722;BME280;32455;43.430;23.136;2022-07-10T04:33:56;97892.41;;;19.27;67.49
46722;BME280;32455;43.430;23.136;2022-07-10T04:36:44;97896.19;;;19.26;68.20
46722;BME280;32455;43.430;23.136;2022-07-10T04:39:29;97894.53;;;19.31;65.53
46722;BME280;32455;43.430;23.136;2022-07-10T04:42:15;97888.56;;;19.29;67.08
46722;BME280;32455;43.430;23.136;2022-07-10T04:45:00;97901.84;;;19.35;70.03
46722;BME280;32455;43.430;23.136;2022-07-10T04:47:45;97891.59;;;19.22;72.39
46722;BME280;32455;43.430;23.136;2022-07-10T04:50:31;97907.28;;;19.35;70.03
46722;BME280;32455;43.430;23.136;2022-07-10T04:53:16;97901.63;;;19.32;69.40
46722;BME280;32455;43.430;23.136;2022-07-10T04:56:01;97908.34;;;19.39;67.56
46722;BME280;32455;43.430;23.136;2022-07-10T04:58:47;97904.19;;;19.47;66.35
46722;BME280;32455;43.430;23.136;2022-07-10T05:01:33;97900.38;;;19.48;69.64
46722;BME280;32455;43.430;23.136;2022-07-10T05:04:18;97890.19;;;19.59;65.19
46722;BME280;32455;43.430;23.136;2022-07-10T05:07:04;97894.47;;;19.70;64.80
46722;BME280;32455;43.430;23.136;2022-07-10T05:09:49;97896.34;;;19.74;65.19
46722;BME280;32455;43.430;23.136;2022-07-10T05:12:35;97906.00;;;19.86;65.51
46722;BME280;32455;43.430;23.136;2022-07-10T05:15:20;97901.56;;;19.71;61.71
46722;BME280;32455;43.430;23.136;2022-07-10T05:18:05;97903.22;;;19.91;63.37
46722;BME280;32455;43.430;23.136;2022-07-10T05:20:51;97893.78;;;20.07;63.58
46722;BME280;32455;43.430;23.136;2022-07-10T05:23:39;97886.28;;;20.18;62.26
46722;BME280;32455;43.430;23.136;2022-07-10T05:26:25;97884.03;;;20.44;60.82
46722;BME280;32455;43.430;23.136;2022-07-10T05:29:09;97886.81;;;20.63;59.01
46722;BME280;32455;43.430;23.136;2022-07-10T05:31:55;97886.59;;;20.78;56.76
46722;BME280;32455;43.430;23.136;2022-07-10T05:34:40;97894.56;;;20.74;59.38
46722;BME280;32455;43.430;23.136;2022-07-10T05:37:26;97890.06;;;20.65;58.10
46722;BME280;32455;43.430;23.136;2022-07-10T05:40:12;97902.34;;;20.81;58.68
46722;BME280;32455;43.430;23.136;2022-07-10T05:42:58;97906.44;;;20.84;58.34
46722;BME280;32455;43.430;23.136;2022-07-10T05:45:43;97900.97;;;20.84;59.14
46722;BME280;32455;43.430;23.136;2022-07-10T05:48:29;97897.72;;;21.00;59.75
46722;BME280;32455;43.430;23.136;2022-07-10T05:51:15;97888.56;;;20.91;59.56
46722;BME280;32455;43.430;23.136;2022-07-10T05:54:00;97894.25;;;20.95;60.11
46722;BME280;32455;43.430;23.136;2022-07-10T05:56:45;97891.13;;;21.01;60.30
46722;BME280;32455;43.430;23.136;2022-07-10T05:59:33;97894.53;;;21.12;59.76
46722;BME280;32455;43.430;23.136;2022-07-10T06:02:20;97885.38;;;21.03;59.12
46722;BME280;32455;43.430;23.136;2022-07-10T06:05:07;97888.97;;;21.17;60.64
46722;BME280;32455;43.430;23.136;2022-07-10T06:07:53;97889.19;;;21.21;61.84
46722;BME280;32455;43.430;23.136;2022-07-10T06:10:39;97896.47;;;21.44;57.89
46722;BME280;32455;43.430;23.136;2022-07-10T06:13:28;97905.31;;;21.55;56.15
46722;BME280;32455;43.430;23.136;2022-07-10T06:16:14;97893.03;;;21.53;58.02
46722;BME280;32455;43.430;23.136;2022-07-10T06:19:00;97892.88;;;21.63;55.98
46722;BME280;32455;43.430;23.136;2022-07-10T06:21:46;97905.00;;;21.57;56.64
46722;BME280;32455;43.430;23.136;2022-07-10T06:24:31;97887.25;;;21.40;59.60
46722;BME280;32455;43.430;23.136;2022-07-10T06:27:17;97886.38;;;21.26;55.95
46722;BME280;32455;43.430;23.136;2022-07-10T06:30:02;97902.25;;;21.43;57.70
46722;BME280;32455;43.430;23.136;2022-07-10T06:32:48;97888.88;;;21.41;56.32
46722;BME280;32455;43.430;23.136;2022-07-10T06:35:33;97897.53;;;21.30;55.43
46722;BME280;32455;43.430;23.136;2022-07-10T06:38:18;97899.38;;;21.34;54.69
46722;BME280;32455;43.430;23.136;2022-07-10T06:41:04;97899.91;;;21.17;54.03
46722;BME280;32455;43.430;23.136;2022-07-10T06:43:49;97901.16;;;21.25;54.60
46722;BME280;32455;43.430;23.136;2022-07-10T06:46:35;97892.16;;;21.24;53.61
46722;BME280;32455;43.430;23.136;2022-07-10T06:49:20;97902.78;;;21.26;54.61
46722;BME280;32455;43.430;23.136;2022-07-10T06:52:06;97903.16;;;21.38;56.06
46722;BME280;32455;43.430;23.136;2022-07-10T06:54:52;97896.78;;;21.24;53.93
46722;BME280;32455;43.430;23.136;2022-07-10T06:57:38;97891.84;;;21.26;54.35
46722;BME280;32455;43.430;23.136;2022-07-10T07:00:24;97899.53;;;21.57;53.22
46722;BME280;32455;43.430;23.136;2022-07-10T07:03:10;97890.75;;;21.73;53.37
46722;BME280;32455;43.430;23.136;2022-07-10T07:05:55;97895.03;;;21.93;52.82
46722;BME280;32455;43.430;23.136;2022-07-10T07:08:41;97893.50;;;22.01;51.71
46722;BME280;32455;43.430;23.136;2022-07-10T07:11:27;97890.56;;;22.11;52.27
46722;BME280;32455;43.430;23.136;2022-07-10T07:14:14;97890.50;;;22.16;53.42
46722;BME280;32455;43.430;23.136;2022-07-10T07:16:59;97894.94;;;22.26;51.38
46722;BME280;32455;43.430;23.136;2022-07-10T07:19:52;97897.97;;;22.38;52.37
46722;BME280;32455;43.430;23.136;2022-07-10T07:22:56;97895.44;;;22.42;51.93
46722;BME280;32455;43.430;23.136;2022-07-10T07:25:57;97894.69;;;22.64;54.38
46722;BME280;32455;43.430;23.136;2022-07-10T07:28:42;97892.50;;;22.88;53.42
46722;BME280;32455;43.430;23.136;2022-07-10T07:31:28;97899.50;;;22.81;51.06
46722;BME280;32455;43.430;23.136;2022-07-10T07:34:14;97891.25;;;22.94;52.05
46722;BME280;32455;43.430;23.136;2022-07-10T07:37:00;97891.66;;;23.02;52.07
46722;BME280;32455;43.430;23.136;2022-07-10T07:39:45;97897.47;;;23.22;52.19
46722;BME280;32455;43.430;23.136;2022-07-10T07:42:31;97887.72;;;23.16;51.98
46722;BME280;32455;43.430;23.136;2022-07-10T07:45:16;97889.53;;;23.43;51.44
46722;BME280;32455;43.430;23.136;2022-07-10T07:48:02;97883.00;;;23.31;49.99
46722;BME280;32455;43.430;23.136;2022-07-10T07:50:48;97890.72;;;23.51;49.70
46722;BME280;32455;43.430;23.136;2022-07-10T07:53:33;97895.59;;;23.63;50.52
46722;BME280;32455;43.430;23.136;2022-07-10T07:56:19;97901.31;;;23.66;47.60
46722;BME280;32455;43.430;23.136;2022-07-10T07:59:04;97892.75;;;23.68;45.86
46722;BME280;32455;43.430;23.136;2022-07-10T08:01:50;97885.59;;;23.36;46.03
46722;BME280;32455;43.430;23.136;2022-07-10T08:04:35;97890.19;;;23.49;49.42
46722;BME280;32455;43.430;23.136;2022-07-10T08:07:21;97896.31;;;23.68;48.54
46722;BME280;32455;43.430;23.136;2022-07-10T08:10:17;97894.50;;;23.95;48.49
46722;BME280;32455;43.430;23.136;2022-07-10T08:13:03;97895.00;;;24.06;47.47
46722;BME280;32455;43.430;23.136;2022-07-10T08:15:49;97877.47;;;24.15;47.12
46722;BME280;32455;43.430;23.136;2022-07-10T08:18:35;97901.50;;;24.10;47.49
46722;BME280;32455;43.430;23.136;2022-07-10T08:21:21;97891.03;;;24.20;46.26
46722;BME280;32455;43.430;23.136;2022-07-10T08:24:07;97897.94;;;24.09;43.57
46722;BME280;32455;43.430;23.136;2022-07-10T08:26:53;97885.19;;;24.13;47.43
46722;BME280;32455;43.430;23.136;2022-07-10T08:29:40;97875.03;;;24.22;47.54
46722;BME280;32455;43.430;23.136;2022-07-10T08:32:26;97894.34;;;24.48;45.61
46722;BME280;32455;43.430;23.136;2022-07-10T08:35:12;97878.84;;;24.61;44.78
46722;BME280;32455;43.430;23.136;2022-07-10T08:37:59;97871.13;;;24.55;44.49
46722;BME280;32455;43.430;23.136;2022-07-10T08:40:45;97876.25;;;24.47;48.24
46722;BME280;32455;43.430;23.136;2022-07-10T08:43:31;97887.59;;;24.55;45.55
46722;BME280;32455;43.430;23.136;2022-07-10T08:46:18;97866.81;;;24.22;44.26
46722;BME280;32455;43.430;23.136;2022-07-10T08:49:08;97892.41;;;24.40;42.41
46722;BME280;32455;43.430;23.136;2022-07-10T08:52:38;97891.28;;;24.41;45.09
46722;BME280;32455;43.430;23.136;2022-07-10T08:55:28;97888.72;;;24.62;44.73
46722;BME280;32455;43.430;23.136;2022-07-10T08:58:14;97885.69;;;24.81;46.22
46722;BME280;32455;43.430;23.136;2022-07-10T09:01:00;97900.41;;;24.85;43.16
46722;BME280;32455;43.430;23.136;2022-07-10T09:03:46;97892.31;;;24.71;44.82
46722;BME280;32455;43.430;23.136;2022-07-10T09:06:32;97886.78;;;24.54;43.91
46722;BME280;32455;43.430;23.136;2022-07-10T09:09:19;97887.28;;;24.73;44.67
46722;BME280;32455;43.430;23.136;2022-07-10T09:12:04;97887.28;;;24.65;42.59
46722;BME280;32455;43.430;23.136;2022-07-10T09:14:51;97884.69;;;24.77;43.14
46722;BME280;32455;43.430;23.136;2022-07-10T09:17:58;97877.78;;;24.80;41.68
46722;BME280;32455;43.430;23.136;2022-07-10T09:20:45;97875.94;;;24.49;41.28
46722;BME280;32455;43.430;23.136;2022-07-10T09:23:32;97871.94;;;24.81;41.61
46722;BME280;32455;43.430;23.136;2022-07-10T09:26:18;97864.03;;;24.97;42.22
46722;BME280;32455;43.430;23.136;2022-07-10T09:29:10;97882.59;;;25.17;41.37
46722;BME280;32455;43.430;23.136;2022-07-10T09:32:01;97874.69;;;24.90;42.16
46722;BME280;32455;43.430;23.136;2022-07-10T09:34:49;97875.31;;;25.04;41.87
46722;BME280;32455;43.430;23.136;2022-07-10T09:37:38;97865.16;;;25.13;42.01
46722;BME280;32455;43.430;23.136;2022-07-10T09:40:27;97871.94;;;25.07;41.12
46722;BME280;32455;43.430;23.136;2022-07-10T09:43:12;97875.31;;;25.04;41.42
46722;BME280;32455;43.430;23.136;2022-07-10T09:45:58;97875.50;;;25.25;41.58
46722;BME280;32455;43.430;23.136;2022-07-10T09:48:43;97875.78;;;25.41;42.85
46722;BME280;32455;43.430;23.136;2022-07-10T09:51:34;97862.38;;;24.79;40.63
46722;BME280;32455;43.430;23.136;2022-07-10T09:54:21;97882.91;;;25.33;41.45
46722;BME280;32455;43.430;23.136;2022-07-10T09:57:09;97891.81;;;25.39;40.59
46722;BME280;32455;43.430;23.136;2022-07-10T09:59:58;97876.00;;;25.10;40.56
46722;BME280;32455;43.430;23.136;2022-07-10T10:02:45;97870.75;;;25.43;42.91
46722;BME280;32455;43.430;23.136;2022-07-10T10:05:42;97875.31;;;25.21;38.58
46722;BME280;32455;43.430;23.136;2022-07-10T10:11:56;97874.34;;;25.26;40.50
46722;BME280;32455;43.430;23.136;2022-07-10T10:14:43;97869.94;;;25.42;39.24
46722;BME280;32455;43.430;23.136;2022-07-10T10:17:29;97847.50;;;25.32;38.76
46722;BME280;32455;43.430;23.136;2022-07-10T10:20:15;97862.34;;;25.57;41.63
46722;BME280;32455;43.430;23.136;2022-07-10T10:23:23;97865.78;;;25.36;41.97
46722;BME280;32455;43.430;23.136;2022-07-10T10:26:09;97850.75;;;25.81;42.28
46722;BME280;32455;43.430;23.136;2022-07-10T10:28:57;97843.31;;;25.81;43.10
46722;BME280;32455;43.430;23.136;2022-07-10T10:31:43;97837.88;;;25.55;40.18
46722;BME280;32455;43.430;23.136;2022-07-10T10:34:48;97855.72;;;25.49;41.14
46722;BME280;32455;43.430;23.136;2022-07-10T10:37:40;97842.84;;;24.71;38.60
46722;BME280;32455;43.430;23.136;2022-07-10T10:40:33;97846.22;;;25.12;40.16
46722;BME280;32455;43.430;23.136;2022-07-10T10:43:20;97844.59;;;25.28;36.87
46722;BME280;32455;43.430;23.136;2022-07-10T10:46:25;97850.19;;;25.58;36.17
46722;BME280;32455;43.430;23.136;2022-07-10T10:49:11;97827.56;;;25.43;40.23
46722;BME280;32455;43.430;23.136;2022-07-10T10:52:09;97846.72;;;25.87;36.63
46722;BME280;32455;43.430;23.136;2022-07-10T10:55:00;97832.66;;;26.09;37.92
46722;BME280;32455;43.430;23.136;2022-07-10T10:57:47;97842.91;;;26.00;40.85
46722;BME280;32455;43.430;23.136;2022-07-10T11:00:33;97830.91;;;25.58;38.85
46722;BME280;32455;43.430;23.136;2022-07-10T11:03:28;97836.25;;;25.63;40.30
46722;BME280;32455;43.430;23.136;2022-07-10T11:06:14;97828.59;;;25.77;40.56
46722;BME280;32455;43.430;23.136;2022-07-10T11:09:00;97843.03;;;26.04;40.33
46722;BME280;32455;43.430;23.136;2022-07-10T11:12:00;97836.41;;;26.05;39.30
46722;BME280;32455;43.430;23.136;2022-07-10T11:14:46;97836.38;;;25.66;39.36
46722;BME280;32455;43.430;23.136;2022-07-10T11:17:35;97824.06;;;25.72;39.03
46722;BME280;32455;43.430;23.136;2022-07-10T11:20:21;97821.50;;;25.67;38.90
46722;BME280;32455;43.430;23.136;2022-07-10T11:23:56;97832.97;;;25.78;41.88
46722;BME280;32455;43.430;23.136;2022-07-10T11:26:35;97822.22;;;25.38;40.70
46722;BME280;32455;43.430;23.136;2022-07-10T11:29:21;97827.16;;;25.71;41.78
46722;BME280;32455;43.430;23.136;2022-07-10T11:32:07;97825.19;;;26.10;41.19
46722;BME280;32455;43.430;23.136;2022-07-10T11:34:52;97818.88;;;26.09;39.43
46722;BME280;32455;43.430;23.136;2022-07-10T11:37:58;97823.81;;;25.95;40.36
46722;BME280;32455;43.430;23.136;2022-07-10T11:40:43;97812.81;;;25.48;43.40
46722;BME280;32455;43.430;23.136;2022-07-10T11:43:29;97807.22;;;25.27;39.96
46722;BME280;32455;43.430;23.136;2022-07-10T11:46:15;97804.63;;;25.69;39.69
46722;BME280;32455;43.430;23.136;2022-07-10T11:49:05;97814.84;;;25.77;41.27
46722;BME280;32455;43.430;23.136;2022-07-10T11:51:53;97803.06;;;25.97;40.83
46722;BME280;32455;43.430;23.136;2022-07-10T11:54:39;97796.88;;;26.30;40.58
46722;BME280;32455;43.430;23.136;2022-07-10T11:57:26;97798.38;;;25.98;39.65
46722;BME280;32455;43.430;23.136;2022-07-10T12:00:29;97801.81;;;25.57;39.63
46722;BME280;32455;43.430;23.136;2022-07-10T12:03:20;97808.94;;;25.49;41.46
46722;BME280;32455;43.430;23.136;2022-07-10T12:06:06;97812.09;;;25.13;44.07
46722;BME280;32455;43.430;23.136;2022-07-10T12:08:53;97805.00;;;25.12;43.91
46722;BME280;32455;43.430;23.136;2022-07-10T12:11:40;97801.59;;;25.62;43.50
46722;BME280;32455;43.430;23.136;2022-07-10T12:14:26;97813.47;;;25.45;40.44
46722;BME280;32455;43.430;23.136;2022-07-10T12:17:11;97810.06;;;25.48;41.83
46722;BME280;32455;43.430;23.136;2022-07-10T12:20:01;97811.25;;;25.30;45.19
46722;BME280;32455;43.430;23.136;2022-07-10T12:22:48;97813.06;;;24.91;42.67
46722;BME280;32455;43.430;23.136;2022-07-10T12:25:36;97818.75;;;24.94;42.14
46722;BME280;32455;43.430;23.136;2022-07-10T12:28:22;97815.44;;;25.44;42.57
46722;BME280;32455;43.430;23.136;2022-07-10T12:31:08;97822.59;;;25.75;40.50
46722;BME280;32455;43.430;23.136;2022-07-10T12:33:55;97820.94;;;26.21;38.21
46722;BME280;32455;43.430;23.136;2022-07-10T12:36:53;97812.50;;;25.50;39.94
46722;BME280;32455;43.430;23.136;2022-07-10T12:39:47;97825.44;;;25.49;41.29
46722;BME280;32455;43.430;23.136;2022-07-10T12:42:33;97826.00;;;25.81;40.88
46722;BME280;32455;43.430;23.136;2022-07-10T12:45:19;97829.69;;;25.85;40.46
46722;BME280;32455;43.430;23.136;2022-07-10T12:48:04;97822.97;;;26.03;39.90
46722;BME280;32455;43.430;23.136;2022-07-10T12:50:53;97823.25;;;25.81;40.46
46722;BME280;32455;43.430;23.136;2022-07-10T12:53:48;97817.16;;;25.58;41.40
46722;BME280;32455;43.430;23.136;2022-07-10T12:56:35;97824.88;;;25.09;41.59
46722;BME280;32455;43.430;23.136;2022-07-10T12:59:21;97806.13;;;25.19;41.72
46722;BME280;32455;43.430;23.136;2022-07-10T13:02:20;97811.13;;;24.83;42.25
46722;BME280;32455;43.430;23.136;2022-07-10T13:05:06;97814.84;;;24.87;44.16
46722;BME280;32455;43.430;23.136;2022-07-10T13:07:52;97805.31;;;24.93;43.39
46722;BME280;32455;43.430;23.136;2022-07-10T13:10:39;97809.69;;;25.03;41.86
46722;BME280;32455;43.430;23.136;2022-07-10T13:13:26;97816.16;;;24.72;42.89
46722;BME280;32455;43.430;23.136;2022-07-10T13:16:13;97821.50;;;24.86;43.75
46722;BME280;32455;43.430;23.136;2022-07-10T13:18:59;97823.13;;;24.61;43.74
46722;BME280;32455;43.430;23.136;2022-07-10T13:21:44;97810.34;;;24.47;44.88
46722;BME280;32455;43.430;23.136;2022-07-10T13:24:30;97810.59;;;24.03;44.68
46722;BME280;32455;43.430;23.136;2022-07-10T13:27:15;97805.44;;;24.18;46.34
46722;BME280;32455;43.430;23.136;2022-07-10T13:30:01;97818.97;;;24.06;46.58
46722;BME280;32455;43.430;23.136;2022-07-10T13:32:46;97822.22;;;24.17;46.53
46722;BME280;32455;43.430;23.136;2022-07-10T13:35:32;97817.53;;;24.09;46.34
46722;BME280;32455;43.430;23.136;2022-07-10T13:38:20;97817.16;;;24.50;46.50
46722;BME280;32455;43.430;23.136;2022-07-10T13:41:06;97810.50;;;24.42;46.03
46722;BME280;32455;43.430;23.136;2022-07-10T13:43:52;97818.09;;;24.97;45.15
46722;BME280;32455;43.430;23.136;2022-07-10T13:46:37;97818.25;;;25.01;45.03
46722;BME280;32455;43.430;23.136;2022-07-10T13:49:25;97815.16;;;25.20;44.03
46722;BME280;32455;43.430;23.136;2022-07-10T13:52:12;97815.97;;;25.20;44.39
46722;BME280;32455;43.430;23.136;2022-07-10T13:54:57;97809.38;;;24.69;43.83
46722;BME280;32455;43.430;23.136;2022-07-10T13:57:43;97826.00;;;24.99;44.00
46722;BME280;32455;43.430;23.136;2022-07-10T14:00:29;97821.47;;;25.03;43.96
46722;BME280;32455;43.430;23.136;2022-07-10T14:03:14;97819.38;;;24.48;45.38
46722;BME280;32455;43.430;23.136;2022-07-10T14:06:00;97818.06;;;24.37;47.35
46722;BME280;32455;43.430;23.136;2022-07-10T14:08:45;97821.75;;;24.23;47.67
46722;BME280;32455;43.430;23.136;2022-07-10T14:11:32;97819.81;;;24.24;48.10
46722;BME280;32455;43.430;23.136;2022-07-10T14:14:18;97823.66;;;24.06;46.54
46722;BME280;32455;43.430;23.136;2022-07-10T14:17:04;97833.56;;;24.24;45.31
46722;BME280;32455;43.430;23.136;2022-07-10T14:19:49;97827.22;;;24.15;46.76
46722;BME280;32455;43.430;23.136;2022-07-10T14:22:36;97834.75;;;23.92;48.57
46722;BME280;32455;43.430;23.136;2022-07-10T14:25:24;97834.16;;;24.04;48.58
46722;BME280;32455;43.430;23.136;2022-07-10T14:28:12;97823.91;;;24.53;47.80
46722;BME280;32455;43.430;23.136;2022-07-10T14:30:58;97829.69;;;25.29;47.86
46722;BME280;32455;43.430;23.136;2022-07-10T14:33:45;97827.41;;;25.40;47.11
46722;BME280;32455;43.430;23.136;2022-07-10T14:36:31;97842.69;;;25.11;48.44